Terminal Aerodrome Forecast
Issued by NWS

Home | Current Version | Previous Version | Text Only | Print | Product List | Glossary On
Versions: 1 2 3 4 5 6 7 8 9 10 11 12 13 14 15
350
FTUS44 KLZK 232345
TAFPBF
TAF
KPBF 232345Z 2400/2424 12005KT P6SM VCTS SCT040CB BKN250
     FM240300 00000KT P6SM SCT250
      TEMPO 2410/2413 5SM BR
     FM241500 VRB05KT P6SM VCTS SCT040CB BKN250=

USA.gov is the U.S. government's official web portal to all federal, state and local government web resources and services.